sensor_id;sensor_type;location;lat;lon;timestamp;temperature;humidity
37324;DHT22;23205;49.986;18.950;2022-08-03T00:04:28;16.80;99.90
37324;DHT22;23205;49.986;18.950;2022-08-03T00:09:29;16.90;99.90
37324;DHT22;23205;49.986;18.950;2022-08-03T00:14:30;16.90;99.90
37324;DHT22;23205;49.986;18.950;2022-08-03T00:19:31;16.70;99.90
37324;DHT22;23205;49.986;18.950;2022-08-03T00:24:32;16.70;99.90
37324;DHT22;23205;49.986;18.950;2022-08-03T00:29:36;16.70;99.90
37324;DHT22;23205;49.986;18.950;2022-08-03T00:34:36;16.60;99.90
37324;DHT22;23205;49.986;18.950;2022-08-03T00:39:37;16.60;99.90
37324;DHT22;23205;49.986;18.950;2022-08-03T00:44:40;16.60;99.90
37324;DHT22;23205;49.986;18.950;2022-08-03T00:49:41;16.30;99.90
37324;DHT22;23205;49.986;18.950;2022-08-03T00:54:42;16.30;99.90
37324;DHT22;23205;49.986;18.950;2022-08-03T00:59:43;16.30;99.90
37324;DHT22;23205;49.986;18.950;2022-08-03T01:04:44;16.40;99.90
37324;DHT22;23205;49.986;18.950;2022-08-03T01:09:46;16.20;99.90
37324;DHT22;23205;49.986;18.950;2022-08-03T01:14:59;16.10;99.90
37324;DHT22;23205;49.986;18.950;2022-08-03T01:20:08;16.00;99.90
37324;DHT22;23205;49.986;18.950;2022-08-03T01:30:37;16.10;99.90
37324;DHT22;23205;49.986;18.950;2022-08-03T01:35:44;15.90;99.90
37324;DHT22;23205;49.986;18.950;2022-08-03T01:40:47;16.00;99.90
37324;DHT22;23205;49.986;18.950;2022-08-03T01:45:51;15.90;99.90
37324;DHT22;23205;49.986;18.950;2022-08-03T01:50:55;15.90;99.90
37324;DHT22;23205;49.986;18.950;2022-08-03T01:55:57;15.70;99.90
37324;DHT22;23205;49.986;18.950;2022-08-03T02:01:00;15.80;99.90
37324;DHT22;23205;49.986;18.950;2022-08-03T02:06:02;15.80;99.90
37324;DHT22;23205;49.986;18.950;2022-08-03T02:11:03;15.70;99.90
37324;DHT22;23205;49.986;18.950;2022-08-03T02:16:06;15.70;99.90
37324;DHT22;23205;49.986;18.950;2022-08-03T02:21:08;15.60;99.90
37324;DHT22;23205;49.986;18.950;2022-08-03T02:26:13;15.50;99.90
37324;DHT22;23205;49.986;18.950;2022-08-03T02:31:18;15.60;99.90
37324;DHT22;23205;49.986;18.950;2022-08-03T02:36:28;15.60;99.90
37324;DHT22;23205;49.986;18.950;2022-08-03T02:41:34;15.60;99.90
37324;DHT22;23205;49.986;18.950;2022-08-03T02:46:43;15.40;99.90
37324;DHT22;23205;49.986;18.950;2022-08-03T02:51:46;15.30;99.90
37324;DHT22;23205;49.986;18.950;2022-08-03T02:56:49;15.20;99.90
37324;DHT22;23205;49.986;18.950;2022-08-03T03:01:52;15.30;99.90
37324;DHT22;23205;49.986;18.950;2022-08-03T03:06:55;15.20;99.90
37324;DHT22;23205;49.986;18.950;2022-08-03T03:11:56;15.30;99.90
37324;DHT22;23205;49.986;18.950;2022-08-03T03:16:57;15.30;99.90
37324;DHT22;23205;49.986;18.950;2022-08-03T03:22:00;15.20;99.90
37324;DHT22;23205;49.986;18.950;2022-08-03T03:27:02;15.30;99.90
37324;DHT22;23205;49.986;18.950;2022-08-03T03:32:04;15.20;99.90
37324;DHT22;23205;49.986;18.950;2022-08-03T03:37:05;15.30;99.90
37324;DHT22;23205;49.986;18.950;2022-08-03T03:42:06;15.30;99.90
37324;DHT22;23205;49.986;18.950;2022-08-03T03:47:07;15.20;99.90
37324;DHT22;23205;49.986;18.950;2022-08-03T03:52:09;15.30;99.90
37324;DHT22;23205;49.986;18.950;2022-08-03T03:57:10;15.30;99.90
37324;DHT22;23205;49.986;18.950;2022-08-03T04:02:11;15.40;99.90
37324;DHT22;23205;49.986;18.950;2022-08-03T04:07:12;15.60;99.90
37324;DHT22;23205;49.986;18.950;2022-08-03T04:12:32;15.60;99.90
37324;DHT22;23205;49.986;18.950;2022-08-03T04:17:34;15.50;99.90
37324;DHT22;23205;49.986;18.950;2022-08-03T04:22:36;15.50;99.90
37324;DHT22;23205;49.986;18.950;2022-08-03T04:27:40;15.40;99.90
37324;DHT22;23205;49.986;18.950;2022-08-03T04:32:42;15.40;99.90
37324;DHT22;23205;49.986;18.950;2022-08-03T04:37:47;15.40;99.90
37324;DHT22;23205;49.986;18.950;2022-08-03T04:42:49;15.60;99.90
37324;DHT22;23205;49.986;18.950;2022-08-03T04:47:50;15.80;99.90
37324;DHT22;23205;49.986;18.950;2022-08-03T04:52:51;15.80;99.90
37324;DHT22;23205;49.986;18.950;2022-08-03T04:57:52;15.90;99.90
37324;DHT22;23205;49.986;18.950;2022-08-03T05:02:53;16.10;99.90
37324;DHT22;23205;49.986;18.950;2022-08-03T05:07:54;16.20;99.90
37324;DHT22;23205;49.986;18.950;2022-08-03T05:12:55;16.30;99.90
37324;DHT22;23205;49.986;18.950;2022-08-03T05:17:59;16.50;99.90
37324;DHT22;23205;49.986;18.950;2022-08-03T05:22:59;16.70;99.90
37324;DHT22;23205;49.986;18.950;2022-08-03T05:28:01;16.80;99.90
37324;DHT22;23205;49.986;18.950;2022-08-03T05:33:02;16.90;99.90
37324;DHT22;23205;49.986;18.950;2022-08-03T05:38:04;17.00;99.90
37324;DHT22;23205;49.986;18.950;2022-08-03T05:43:05;17.10;99.90
37324;DHT22;23205;49.986;18.950;2022-08-03T05:48:06;17.20;99.90
37324;DHT22;23205;49.986;18.950;2022-08-03T05:53:07;17.20;99.90
37324;DHT22;23205;49.986;18.950;2022-08-03T05:58:07;17.30;99.90
37324;DHT22;23205;49.986;18.950;2022-08-03T06:03:08;17.50;99.90
37324;DHT22;23205;49.986;18.950;2022-08-03T06:08:09;17.60;99.90
37324;DHT22;23205;49.986;18.950;2022-08-03T06:13:10;17.80;99.90
37324;DHT22;23205;49.986;18.950;2022-08-03T06:18:11;17.90;99.90
37324;DHT22;23205;49.986;18.950;2022-08-03T06:23:12;18.20;99.90
37324;DHT22;23205;49.986;18.950;2022-08-03T06:28:13;18.40;99.90
37324;DHT22;23205;49.986;18.950;2022-08-03T06:33:14;18.70;99.90
37324;DHT22;23205;49.986;18.950;2022-08-03T06:38:16;18.90;99.90
37324;DHT22;23205;49.986;18.950;2022-08-03T06:43:16;19.10;99.90
37324;DHT22;23205;49.986;18.950;2022-08-03T06:48:17;19.30;99.90
37324;DHT22;23205;49.986;18.950;2022-08-03T06:53:18;19.60;99.90
37324;DHT22;23205;49.986;18.950;2022-08-03T06:58:19;19.80;99.90
37324;DHT22;23205;49.986;18.950;2022-08-03T07:03:19;20.10;99.90
37324;DHT22;23205;49.986;18.950;2022-08-03T07:08:20;20.40;99.90
37324;DHT22;23205;49.986;18.950;2022-08-03T07:13:22;20.40;99.90
37324;DHT22;23205;49.986;18.950;2022-08-03T07:18:23;20.50;99.90
37324;DHT22;23205;49.986;18.950;2022-08-03T07:23:27;20.70;99.90
37324;DHT22;23205;49.986;18.950;2022-08-03T07:28:30;20.80;99.90
37324;DHT22;23205;49.986;18.950;2022-08-03T07:33:33;21.00;99.90
37324;DHT22;23205;49.986;18.950;2022-08-03T07:38:35;21.30;99.90
37324;DHT22;23205;49.986;18.950;2022-08-03T07:43:36;21.40;99.90
37324;DHT22;23205;49.986;18.950;2022-08-03T07:48:37;21.60;99.90
37324;DHT22;23205;49.986;18.950;2022-08-03T07:53:38;21.80;99.90
37324;DHT22;23205;49.986;18.950;2022-08-03T07:58:38;22.00;99.90
37324;DHT22;23205;49.986;18.950;2022-08-03T08:03:39;22.10;99.90
37324;DHT22;23205;49.986;18.950;2022-08-03T08:08:40;22.30;99.90
37324;DHT22;23205;49.986;18.950;2022-08-03T08:13:41;22.40;99.90
37324;DHT22;23205;49.986;18.950;2022-08-03T08:18:42;22.50;99.90
37324;DHT22;23205;49.986;18.950;2022-08-03T08:23:43;22.60;99.90
37324;DHT22;23205;49.986;18.950;2022-08-03T08:28:44;22.80;99.90
37324;DHT22;23205;49.986;18.950;2022-08-03T08:33:45;22.90;99.90
37324;DHT22;23205;49.986;18.950;2022-08-03T08:38:46;23.00;99.90
37324;DHT22;23205;49.986;18.950;2022-08-03T08:43:49;23.20;99.90
37324;DHT22;23205;49.986;18.950;2022-08-03T08:48:54;23.20;99.90
37324;DHT22;23205;49.986;18.950;2022-08-03T08:53:59;23.40;99.90
37324;DHT22;23205;49.986;18.950;2022-08-03T08:59:04;23.90;99.90
37324;DHT22;23205;49.986;18.950;2022-08-03T09:04:06;24.20;99.90
37324;DHT22;23205;49.986;18.950;2022-08-03T09:09:07;24.30;99.90
37324;DHT22;23205;49.986;18.950;2022-08-03T09:14:08;24.70;99.20
37324;DHT22;23205;49.986;18.950;2022-08-03T09:19:13;24.80;96.50
37324;DHT22;23205;49.986;18.950;2022-08-03T09:24:20;24.90;97.00
37324;DHT22;23205;49.986;18.950;2022-08-03T09:29:21;24.90;94.90
37324;DHT22;23205;49.986;18.950;2022-08-03T09:34:24;24.80;93.90
37324;DHT22;23205;49.986;18.950;2022-08-03T09:39:31;25.50;88.40
37324;DHT22;23205;49.986;18.950;2022-08-03T09:44:38;26.10;86.30
37324;DHT22;23205;49.986;18.950;2022-08-03T09:49:42;26.20;88.80
37324;DHT22;23205;49.986;18.950;2022-08-03T09:54:56;25.90;90.00
37324;DHT22;23205;49.986;18.950;2022-08-03T10:00:09;25.70;91.00
37324;DHT22;23205;49.986;18.950;2022-08-03T10:05:31;26.30;91.30
37324;DHT22;23205;49.986;18.950;2022-08-03T10:10:42;26.40;90.70
37324;DHT22;23205;49.986;18.950;2022-08-03T10:15:44;26.40;88.30
37324;DHT22;23205;49.986;18.950;2022-08-03T10:20:58;27.20;88.40
37324;DHT22;23205;49.986;18.950;2022-08-03T10:26:03;27.60;86.50
37324;DHT22;23205;49.986;18.950;2022-08-03T10:31:07;28.10;84.00
37324;DHT22;23205;49.986;18.950;2022-08-03T10:36:10;28.50;82.80
37324;DHT22;23205;49.986;18.950;2022-08-03T10:41:12;28.80;79.60
37324;DHT22;23205;49.986;18.950;2022-08-03T10:46:15;28.70;77.50
37324;DHT22;23205;49.986;18.950;2022-08-03T10:51:18;29.40;78.90
37324;DHT22;23205;49.986;18.950;2022-08-03T11:01:54;29.90;73.70
37324;DHT22;23205;49.986;18.950;2022-08-03T11:12:31;30.50;71.40
37324;DHT22;23205;49.986;18.950;2022-08-03T11:17:35;30.90;72.70
37324;DHT22;23205;49.986;18.950;2022-08-03T11:22:50;30.80;73.30
37324;DHT22;23205;49.986;18.950;2022-08-03T11:28:25;30.30;73.60
37324;DHT22;23205;49.986;18.950;2022-08-03T11:33:29;30.60;72.30
37324;DHT22;23205;49.986;18.950;2022-08-03T11:38:30;31.80;68.70
37324;DHT22;23205;49.986;18.950;2022-08-03T11:48:39;30.20;71.60
37324;DHT22;23205;49.986;18.950;2022-08-03T11:53:43;29.20;74.50
37324;DHT22;23205;49.986;18.950;2022-08-03T11:58:47;28.80;75.40
37324;DHT22;23205;49.986;18.950;2022-08-03T12:03:49;30.30;72.60
37324;DHT22;23205;49.986;18.950;2022-08-03T12:08:51;32.20;67.10
37324;DHT22;23205;49.986;18.950;2022-08-03T12:13:54;33.50;67.10
37324;DHT22;23205;49.986;18.950;2022-08-03T12:19:05;34.30;60.20
37324;DHT22;23205;49.986;18.950;2022-08-03T12:24:09;34.50;60.10
37324;DHT22;23205;49.986;18.950;2022-08-03T12:29:21;33.70;59.70
37324;DHT22;23205;49.986;18.950;2022-08-03T12:34:47;34.50;59.40
37324;DHT22;23205;49.986;18.950;2022-08-03T12:39:59;34.30;59.40
37324;DHT22;23205;49.986;18.950;2022-08-03T12:45:27;34.40;58.00
37324;DHT22;23205;49.986;18.950;2022-08-03T12:50:35;34.60;56.70
37324;DHT22;23205;49.986;18.950;2022-08-03T12:55:38;34.30;56.60
37324;DHT22;23205;49.986;18.950;2022-08-03T13:00:54;33.60;57.30
37324;DHT22;23205;49.986;18.950;2022-08-03T13:05:55;34.40;57.20
37324;DHT22;23205;49.986;18.950;2022-08-03T13:10:56;34.40;56.80
37324;DHT22;23205;49.986;18.950;2022-08-03T13:15:57;33.30;59.50
37324;DHT22;23205;49.986;18.950;2022-08-03T13:20:58;32.70;61.90
37324;DHT22;23205;49.986;18.950;2022-08-03T13:25:59;32.30;59.00
37324;DHT22;23205;49.986;18.950;2022-08-03T13:31:00;31.90;62.40
37324;DHT22;23205;49.986;18.950;2022-08-03T13:36:05;31.40;64.20
37324;DHT22;23205;49.986;18.950;2022-08-03T13:41:10;31.00;63.70
37324;DHT22;23205;49.986;18.950;2022-08-03T13:46:11;30.40;64.80
37324;DHT22;23205;49.986;18.950;2022-08-03T13:51:12;30.40;66.00
37324;DHT22;23205;49.986;18.950;2022-08-03T13:56:12;30.00;66.70
37324;DHT22;23205;49.986;18.950;2022-08-03T14:01:13;29.60;63.90
37324;DHT22;23205;49.986;18.950;2022-08-03T14:06:14;29.50;67.40
37324;DHT22;23205;49.986;18.950;2022-08-03T14:11:15;29.40;66.50
37324;DHT22;23205;49.986;18.950;2022-08-03T14:16:17;29.30;66.90
37324;DHT22;23205;49.986;18.950;2022-08-03T14:21:18;29.20;64.80
37324;DHT22;23205;49.986;18.950;2022-08-03T14:26:19;28.60;68.10
37324;DHT22;23205;49.986;18.950;2022-08-03T14:31:19;28.50;65.30
37324;DHT22;23205;49.986;18.950;2022-08-03T14:36:20;28.40;69.20
37324;DHT22;23205;49.986;18.950;2022-08-03T14:41:21;28.20;70.00
37324;DHT22;23205;49.986;18.950;2022-08-03T14:46:22;27.90;70.10
37324;DHT22;23205;49.986;18.950;2022-08-03T14:51:23;27.90;69.10
37324;DHT22;23205;49.986;18.950;2022-08-03T14:56:24;28.10;68.40
37324;DHT22;23205;49.986;18.950;2022-08-03T15:01:25;28.10;67.20
37324;DHT22;23205;49.986;18.950;2022-08-03T15:06:26;28.10;68.70
37324;DHT22;23205;49.986;18.950;2022-08-03T15:11:26;28.00;69.60
37324;DHT22;23205;49.986;18.950;2022-08-03T15:16:27;27.80;70.00
37324;DHT22;23205;49.986;18.950;2022-08-03T15:21:28;27.90;70.60
37324;DHT22;23205;49.986;18.950;2022-08-03T15:26:29;27.70;72.30
37324;DHT22;23205;49.986;18.950;2022-08-03T15:31:30;27.70;74.00
37324;DHT22;23205;49.986;18.950;2022-08-03T15:36:31;27.70;75.00
37324;DHT22;23205;49.986;18.950;2022-08-03T15:41:32;27.90;69.30
37324;DHT22;23205;49.986;18.950;2022-08-03T15:46:33;27.50;69.30
37324;DHT22;23205;49.986;18.950;2022-08-03T15:51:33;27.70;68.50
37324;DHT22;23205;49.986;18.950;2022-08-03T15:56:35;27.70;67.40
37324;DHT22;23205;49.986;18.950;2022-08-03T16:01:36;27.70;68.70
37324;DHT22;23205;49.986;18.950;2022-08-03T16:06:37;27.30;70.20
37324;DHT22;23205;49.986;18.950;2022-08-03T16:11:38;27.20;72.10
37324;DHT22;23205;49.986;18.950;2022-08-03T16:16:38;27.00;74.20
37324;DHT22;23205;49.986;18.950;2022-08-03T16:21:40;26.90;74.60
37324;DHT22;23205;49.986;18.950;2022-08-03T16:26:41;26.90;72.00
37324;DHT22;23205;49.986;18.950;2022-08-03T16:31:42;27.00;70.60
37324;DHT22;23205;49.986;18.950;2022-08-03T16:36:43;27.10;72.40
37324;DHT22;23205;49.986;18.950;2022-08-03T16:41:44;26.90;73.10
37324;DHT22;23205;49.986;18.950;2022-08-03T16:46:45;26.80;74.60
37324;DHT22;23205;49.986;18.950;2022-08-03T16:51:46;26.50;75.00
37324;DHT22;23205;49.986;18.950;2022-08-03T16:56:46;26.50;73.90
37324;DHT22;23205;49.986;18.950;2022-08-03T17:01:47;26.40;74.30
37324;DHT22;23205;49.986;18.950;2022-08-03T17:06:48;26.30;74.30
37324;DHT22;23205;49.986;18.950;2022-08-03T17:11:52;26.20;74.10
37324;DHT22;23205;49.986;18.950;2022-08-03T17:16:53;26.10;75.10
37324;DHT22;23205;49.986;18.950;2022-08-03T17:22:02;26.00;76.50
37324;DHT22;23205;49.986;18.950;2022-08-03T17:27:05;25.90;75.80
37324;DHT22;23205;49.986;18.950;2022-08-03T17:32:09;25.90;78.20
37324;DHT22;23205;49.986;18.950;2022-08-03T17:37:11;25.80;78.40
37324;DHT22;23205;49.986;18.950;2022-08-03T17:42:13;25.80;79.00
37324;DHT22;23205;49.986;18.950;2022-08-03T17:47:15;25.70;79.30
37324;DHT22;23205;49.986;18.950;2022-08-03T17:52:20;25.60;79.00
37324;DHT22;23205;49.986;18.950;2022-08-03T17:57:48;25.50;80.10
37324;DHT22;23205;49.986;18.950;2022-08-03T18:08:26;25.20;83.10
37324;DHT22;23205;49.986;18.950;2022-08-03T18:13:30;24.90;85.30
37324;DHT22;23205;49.986;18.950;2022-08-03T18:18:42;24.90;85.00
37324;DHT22;23205;49.986;18.950;2022-08-03T18:23:43;24.60;88.50
37324;DHT22;23205;49.986;18.950;2022-08-03T18:28:48;24.40;89.20
37324;DHT22;23205;49.986;18.950;2022-08-03T18:33:50;24.20;90.70
37324;DHT22;23205;49.986;18.950;2022-08-03T18:38:50;24.00;91.80
37324;DHT22;23205;49.986;18.950;2022-08-03T18:43:52;23.90;93.00
37324;DHT22;23205;49.986;18.950;2022-08-03T18:49:03;23.80;93.00
37324;DHT22;23205;49.986;18.950;2022-08-03T18:54:27;23.60;93.00
37324;DHT22;23205;49.986;18.950;2022-08-03T19:05:08;23.40;97.60
37324;DHT22;23205;49.986;18.950;2022-08-03T19:10:10;23.20;99.40
37324;DHT22;23205;49.986;18.950;2022-08-03T19:15:12;23.00;99.90
37324;DHT22;23205;49.986;18.950;2022-08-03T19:20:15;22.90;99.90
37324;DHT22;23205;49.986;18.950;2022-08-03T19:25:18;22.80;99.90
37324;DHT22;23205;49.986;18.950;2022-08-03T19:30:19;22.70;99.90
37324;DHT22;23205;49.986;18.950;2022-08-03T19:35:46;22.60;99.90
37324;DHT22;23205;49.986;18.950;2022-08-03T19:40:48;22.30;99.90
37324;DHT22;23205;49.986;18.950;2022-08-03T19:45:57;22.20;99.90
37324;DHT22;23205;49.986;18.950;2022-08-03T19:51:01;22.10;99.90
37324;DHT22;23205;49.986;18.950;2022-08-03T19:56:04;22.00;99.90
37324;DHT22;23205;49.986;18.950;2022-08-03T20:01:06;22.00;99.90
37324;DHT22;23205;49.986;18.950;2022-08-03T20:06:07;21.80;99.90
37324;DHT22;23205;49.986;18.950;2022-08-03T20:11:12;21.70;99.90
37324;DHT22;23205;49.986;18.950;2022-08-03T20:16:12;21.60;99.90
37324;DHT22;23205;49.986;18.950;2022-08-03T20:21:15;21.40;99.90
37324;DHT22;23205;49.986;18.950;2022-08-03T20:26:18;21.30;99.90
37324;DHT22;23205;49.986;18.950;2022-08-03T20:31:20;21.20;99.90
37324;DHT22;23205;49.986;18.950;2022-08-03T20:36:21;21.00;99.90
37324;DHT22;23205;49.986;18.950;2022-08-03T20:41:22;20.90;99.90
37324;DHT22;23205;49.986;18.950;2022-08-03T20:46:23;20.60;99.90
37324;DHT22;23205;49.986;18.950;2022-08-03T20:51:24;20.70;99.90
37324;DHT22;23205;49.986;18.950;2022-08-03T20:56:27;20.70;99.90
37324;DHT22;23205;49.986;18.950;2022-08-03T21:01:29;20.50;99.90
37324;DHT22;23205;49.986;18.950;2022-08-03T21:06:37;20.30;99.90
37324;DHT22;23205;49.986;18.950;2022-08-03T21:11:40;20.20;99.90
37324;DHT22;23205;49.986;18.950;2022-08-03T21:16:44;20.10;99.90
37324;DHT22;23205;49.986;18.950;2022-08-03T21:21:46;20.10;99.90
37324;DHT22;23205;49.986;18.950;2022-08-03T21:26:48;20.00;99.90
37324;DHT22;23205;49.986;18.950;2022-08-03T21:31:53;19.80;99.90
37324;DHT22;23205;49.986;18.950;2022-08-03T21:36:55;19.70;99.90
37324;DHT22;23205;49.986;18.950;2022-08-03T21:41:56;19.80;99.90
37324;DHT22;23205;49.986;18.950;2022-08-03T21:46:58;19.70;99.90
37324;DHT22;23205;49.986;18.950;2022-08-03T21:52:05;19.60;99.90
37324;DHT22;23205;49.986;18.950;2022-08-03T21:57:22;19.40;99.90
37324;DHT22;23205;49.986;18.950;2022-08-03T22:02:27;19.40;99.90
37324;DHT22;23205;49.986;18.950;2022-08-03T22:07:28;19.30;99.90
37324;DHT22;23205;49.986;18.950;2022-08-03T22:12:31;19.10;99.90
37324;DHT22;23205;49.986;18.950;2022-08-03T22:17:35;19.10;99.90
37324;DHT22;23205;49.986;18.950;2022-08-03T22:22:36;19.10;99.90
37324;DHT22;23205;49.986;18.950;2022-08-03T22:27:39;19.00;99.90
37324;DHT22;23205;49.986;18.950;2022-08-03T22:32:41;18.90;99.90
37324;DHT22;23205;49.986;18.950;2022-08-03T22:37:48;18.90;99.90
37324;DHT22;23205;49.986;18.950;2022-08-03T22:42:49;18.90;99.90
37324;DHT22;23205;49.986;18.950;2022-08-03T22:47:50;18.90;99.90
37324;DHT22;23205;49.986;18.950;2022-08-03T22:52:54;18.70;99.90
37324;DHT22;23205;49.986;18.950;2022-08-03T22:57:55;18.60;99.90
37324;DHT22;23205;49.986;18.950;2022-08-03T23:02:56;18.60;99.90
37324;DHT22;23205;49.986;18.950;2022-08-03T23:08:02;18.40;99.90
37324;DHT22;23205;49.986;18.950;2022-08-03T23:13:04;18.40;99.90
37324;DHT22;23205;49.986;18.950;2022-08-03T23:18:05;18.30;99.90
37324;DHT22;23205;49.986;18.950;2022-08-03T23:23:07;18.40;99.90
37324;DHT22;23205;49.986;18.950;2022-08-03T23:28:13;18.20;99.90
37324;DHT22;23205;49.986;18.950;2022-08-03T23:33:16;18.20;99.90
37324;DHT22;23205;49.986;18.950;2022-08-03T23:38:18;18.10;99.90
37324;DHT22;23205;49.986;18.950;2022-08-03T23:43:20;18.10;99.90
37324;DHT22;23205;49.986;18.950;2022-08-03T23:48:23;18.10;99.90
37324;DHT22;23205;49.986;18.950;2022-08-03T23:53:42;18.00;99.90
